Terminal Aerodrome Forecast
Issued by NWS Portland, OR

Home | Current Version | Previous Version | Text Only | Print | Product List | Glossary On
Versions: 1 2 3 4 5 6 7 8 9 10 11 12 13 14 15 16 17 18 19 20 21 22 23 24 25 26 27 28 29 30 31 32 33 34 35 36 37 38 39 40 41
000
FTUS46 KPQR 220727 AAA
TAFSLE
TAF AMD
KSLE 220727Z 2207/2306 18005KT P6SM SCT012 BKN035 OVC050
      TEMPO 2207/2211 5SM -RADZ BR OVC012
     FM221100 00000KT 5SM BR VCSH SCT010 BKN020 OVC045
     FM222100 VRB02KT P6SM SCT020 OVC070=

USA.gov is the U.S. government's official web portal to all federal, state and local government web resources and services.